createdAt,value
2018-09-25T00:00:53.316Z,1009.79
2018-09-25T00:01:53.553Z,1009.81
2018-09-25T00:02:53.756Z,1009.73
2018-09-25T00:03:53.979Z,1009.80
2018-09-25T00:04:54.220Z,1009.81
2018-09-25T00:05:54.434Z,1009.78
2018-09-25T00:06:54.658Z,1009.81
2018-09-25T00:07:54.883Z,1009.85
2018-09-25T00:08:55.109Z,1009.84
2018-09-25T00:09:55.332Z,1009.85
2018-09-25T00:10:55.559Z,1009.86
2018-09-25T00:11:55.783Z,1009.90
2018-09-25T00:12:56.008Z,1009.88
2018-09-25T00:13:56.233Z,1009.90
2018-09-25T00:14:56.457Z,1009.92
2018-09-25T00:15:56.681Z,1009.97
2018-09-25T00:16:56.906Z,1009.98
2018-09-25T00:17:57.132Z,1009.98
2018-09-25T00:18:57.353Z,1009.95
2018-09-25T00:19:57.580Z,1009.97
2018-09-25T00:20:57.802Z,1010.04
2018-09-25T00:21:58.030Z,1010.02
2018-09-25T00:22:58.254Z,1009.99
2018-09-25T00:23:58.478Z,1009.99
2018-09-25T00:24:58.704Z,1010.00
2018-09-25T00:25:58.927Z,1010.00
2018-09-25T00:26:59.149Z,1010.02
2018-09-25T00:27:59.375Z,1010.05
2018-09-25T00:28:59.600Z,1010.03
2018-09-25T00:29:59.824Z,1010.03
2018-09-25T00:31:00.050Z,1010.07
2018-09-25T00:32:00.275Z,1010.09
2018-09-25T00:33:00.501Z,1010.13
2018-09-25T00:34:00.724Z,1010.08
2018-09-25T00:35:00.949Z,1010.06
2018-09-25T00:36:01.174Z,1010.09
2018-09-25T00:37:01.400Z,1010.01
2018-09-25T00:38:01.624Z,1010.08
2018-09-25T00:39:01.849Z,1010.09
2018-09-25T00:40:02.074Z,1010.08
2018-09-25T00:41:02.297Z,1010.08
2018-09-25T00:42:02.523Z,1010.11
2018-09-25T00:43:02.747Z,1010.12
2018-09-25T00:44:02.971Z,1010.12
2018-09-25T00:45:03.197Z,1010.11
2018-09-25T00:46:03.423Z,1010.14
2018-09-25T00:47:03.707Z,1010.11
2018-09-25T00:48:03.875Z,1010.16
2018-09-25T00:49:04.099Z,1010.14
2018-09-25T00:50:04.324Z,1010.11
2018-09-25T00:51:04.548Z,1010.12
2018-09-25T00:52:04.775Z,1010.08
2018-09-25T00:53:05.001Z,1010.09
2018-09-25T00:54:05.227Z,1010.08
2018-09-25T00:55:05.452Z,1010.10
2018-09-25T00:56:05.673Z,1010.10
2018-09-25T00:57:05.906Z,1010.10
2018-09-25T00:58:06.126Z,1010.13
2018-09-25T00:59:06.351Z,1010.11
2018-09-25T01:00:06.577Z,1010.13
2018-09-25T01:01:06.804Z,1010.08
2018-09-25T01:02:07.029Z,1010.10
2018-09-25T01:03:07.250Z,1010.07
2018-09-25T01:04:07.473Z,1010.07
2018-09-25T01:05:07.699Z,1010.07
2018-09-25T01:06:07.921Z,1010.08
2018-09-25T01:07:08.149Z,1010.09
2018-09-25T01:08:08.374Z,1010.08
2018-09-25T01:09:08.600Z,1010.08
2018-09-25T01:10:08.828Z,1010.11
2018-09-25T01:11:09.051Z,1010.10
2018-09-25T01:12:09.277Z,1010.11
2018-09-25T01:13:09.502Z,1010.14
2018-09-25T01:14:09.729Z,1010.10
2018-09-25T01:15:09.952Z,1010.13
2018-09-25T01:16:10.179Z,1010.07
2018-09-25T01:17:10.405Z,1010.08
2018-09-25T01:18:10.630Z,1010.08
2018-09-25T01:19:10.872Z,1010.10
2018-09-25T01:20:11.080Z,1010.11
2018-09-25T01:21:11.301Z,1010.10
2018-09-25T01:22:11.528Z,1010.11
2018-09-25T01:23:11.755Z,1010.14
2018-09-25T01:24:11.977Z,1010.12
2018-09-25T01:25:12.202Z,1010.09
2018-09-25T01:26:12.425Z,1010.10
2018-09-25T01:27:12.666Z,1010.09
2018-09-25T01:28:12.876Z,1010.10
2018-09-25T01:29:13.102Z,1010.12
2018-09-25T01:30:13.328Z,1010.13
2018-09-25T01:31:13.554Z,1010.15
2018-09-25T01:32:13.777Z,1010.14
2018-09-25T01:33:14.004Z,1010.18
2018-09-25T01:34:14.228Z,1010.15
2018-09-25T01:35:14.452Z,1010.16
2018-09-25T01:36:14.677Z,1010.15
2018-09-25T01:37:14.911Z,1010.14
2018-09-25T01:38:15.130Z,1010.14
2018-09-25T01:39:15.351Z,1010.10
2018-09-25T01:40:15.576Z,1010.08
2018-09-25T01:41:15.800Z,1010.10
2018-09-25T01:42:16.025Z,1010.13
2018-09-25T01:43:16.255Z,1010.15
2018-09-25T01:44:16.477Z,1010.19
2018-09-25T01:45:16.700Z,1010.16
2018-09-25T01:46:16.926Z,1010.16
2018-09-25T01:47:17.151Z,1010.20
2018-09-25T01:48:17.377Z,1010.17
2018-09-25T01:49:17.604Z,1010.25
2018-09-25T01:50:17.829Z,1010.26
2018-09-25T01:51:18.054Z,1010.27
2018-09-25T01:52:18.276Z,1010.26
2018-09-25T01:53:18.501Z,1010.29
2018-09-25T01:54:18.735Z,1010.28
2018-09-25T01:55:18.949Z,1010.30
2018-09-25T01:56:19.179Z,1010.28
2018-09-25T01:57:19.397Z,1010.28
2018-09-25T01:58:19.623Z,1010.26
2018-09-25T01:59:19.849Z,1010.26
2018-09-25T02:00:20.077Z,1010.30
2018-09-25T02:01:20.308Z,1010.29
2018-09-25T02:02:20.529Z,1010.33
2018-09-25T02:03:20.754Z,1010.31
2018-09-25T02:04:20.979Z,1010.33
2018-09-25T02:05:21.204Z,1010.37
2018-09-25T02:06:21.429Z,1010.38
2018-09-25T02:07:21.653Z,1010.41
2018-09-25T02:08:21.879Z,1010.44
2018-09-25T02:09:22.104Z,1010.46
2018-09-25T02:10:22.330Z,1010.49
2018-09-25T02:11:22.554Z,1010.54
2018-09-25T02:12:22.779Z,1010.50
2018-09-25T02:13:23.001Z,1010.51
2018-09-25T02:14:23.227Z,1010.54
2018-09-25T02:15:23.454Z,1010.57
2018-09-25T02:16:23.678Z,1010.56
2018-09-25T02:17:23.906Z,1010.53
2018-09-25T02:18:24.132Z,1010.48
2018-09-25T02:19:24.354Z,1010.50
2018-09-25T02:20:24.578Z,1010.46
2018-09-25T02:21:24.803Z,1010.45
2018-09-25T02:22:25.027Z,1010.43
2018-09-25T02:23:25.253Z,1010.47
2018-09-25T02:24:25.478Z,1010.48
2018-09-25T02:25:25.708Z,1010.47
2018-09-25T02:26:25.928Z,1010.47
2018-09-25T02:27:26.153Z,1010.54
2018-09-25T02:28:26.379Z,1010.53
2018-09-25T02:29:26.605Z,1010.56
2018-09-25T02:30:26.833Z,1010.56
2018-09-25T02:31:27.057Z,1010.60
2018-09-25T02:32:27.281Z,1010.60
2018-09-25T02:33:27.506Z,1010.59
2018-09-25T02:34:27.738Z,1010.57
2018-09-25T02:35:27.958Z,1010.60
2018-09-25T02:36:28.185Z,1010.59
2018-09-25T02:37:28.407Z,1010.61
2018-09-25T02:38:28.632Z,1010.65
2018-09-25T02:39:28.859Z,1010.66
2018-09-25T02:40:29.083Z,1010.66
2018-09-25T02:41:29.309Z,1010.64
2018-09-25T02:42:29.536Z,1010.69
2018-09-25T02:43:29.760Z,1010.67
2018-09-25T02:44:29.985Z,1010.66
2018-09-25T02:45:30.214Z,1010.66
2018-09-25T02:46:30.440Z,1010.69
2018-09-25T02:47:30.664Z,1010.66
2018-09-25T02:48:30.889Z,1010.68
2018-09-25T02:49:31.115Z,1010.63
2018-09-25T02:50:31.338Z,1010.63
2018-09-25T02:51:31.559Z,1010.63
2018-09-25T02:52:31.785Z,1010.64
2018-09-25T02:53:32.008Z,1010.63
2018-09-25T02:54:32.238Z,1010.65
2018-09-25T02:55:32.461Z,1010.65
2018-09-25T02:56:32.685Z,1010.64
2018-09-25T02:57:32.912Z,1010.70
2018-09-25T02:58:33.139Z,1010.69
2018-09-25T02:59:33.367Z,1010.71
2018-09-25T03:00:33.588Z,1010.72
2018-09-25T03:01:33.812Z,1010.70
2018-09-25T03:02:34.038Z,1010.70
2018-09-25T03:03:34.261Z,1010.72
2018-09-25T03:04:34.486Z,1010.74
2018-09-25T03:05:34.707Z,1010.70
2018-09-25T03:06:34.948Z,1010.69
2018-09-25T03:07:35.157Z,1010.68
2018-09-25T03:08:35.356Z,1010.70
2018-09-25T03:09:35.580Z,1010.72
2018-09-25T03:10:35.806Z,1010.70
2018-09-25T03:11:36.030Z,1010.71
2018-09-25T03:12:36.255Z,1010.68
2018-09-25T03:13:36.486Z,1010.68
2018-09-25T03:14:36.709Z,1010.68
2018-09-25T03:15:36.932Z,1010.70
2018-09-25T03:16:37.157Z,1010.69
2018-09-25T03:17:37.381Z,1010.69
2018-09-25T03:18:37.610Z,1010.70
2018-09-25T03:19:37.835Z,1010.70
2018-09-25T03:20:38.057Z,1010.70
2018-09-25T03:21:38.281Z,1010.67
2018-09-25T03:22:38.503Z,1010.72
2018-09-25T03:23:38.774Z,1010.71
2018-09-25T03:24:38.951Z,1010.73
2018-09-25T03:25:39.175Z,1010.79
2018-09-25T03:26:39.400Z,1010.77
2018-09-25T03:27:39.627Z,1010.77
2018-09-25T03:28:39.852Z,1010.74
2018-09-25T03:29:40.077Z,1010.77
2018-09-25T03:30:40.300Z,1010.76
2018-09-25T03:31:40.527Z,1010.76
2018-09-25T03:32:40.750Z,1010.75
2018-09-25T03:33:40.978Z,1010.76
2018-09-25T03:34:41.203Z,1010.73
2018-09-25T03:35:41.428Z,1010.73
2018-09-25T03:36:41.655Z,1010.71
2018-09-25T03:37:41.875Z,1010.74
2018-09-25T03:38:42.103Z,1010.72
2018-09-25T03:39:42.332Z,1010.76
2018-09-25T03:40:42.554Z,1010.71
2018-09-25T03:41:42.780Z,1010.71
2018-09-25T03:42:43.006Z,1010.72
2018-09-25T03:43:43.240Z,1010.77
2018-09-25T03:44:43.457Z,1010.72
2018-09-25T03:45:43.681Z,1010.69
2018-09-25T03:46:43.909Z,1010.70
2018-09-25T03:47:44.134Z,1010.70
2018-09-25T03:48:44.356Z,1010.70
2018-09-25T03:49:44.586Z,1010.75
2018-09-25T03:50:44.811Z,1010.79
2018-09-25T03:51:45.040Z,1010.75
2018-09-25T03:52:45.261Z,1010.77
2018-09-25T03:53:45.485Z,1010.77
2018-09-25T03:54:45.709Z,1010.80
2018-09-25T03:55:45.932Z,1010.82
2018-09-25T03:56:46.161Z,1010.80
2018-09-25T03:57:46.385Z,1010.81
2018-09-25T03:58:46.613Z,1010.81
2018-09-25T03:59:46.858Z,1010.83
2018-09-25T04:00:47.061Z,1010.82
2018-09-25T04:01:47.285Z,1010.82
2018-09-25T04:02:47.516Z,1010.81
2018-09-25T04:03:47.737Z,1010.84
2018-09-25T04:04:47.964Z,1010.86
2018-09-25T04:05:48.187Z,1010.93
2018-09-25T04:06:48.415Z,1010.89
2018-09-25T04:07:48.642Z,1010.88
2018-09-25T04:08:48.860Z,1010.91
2018-09-25T04:09:49.081Z,1010.87
2018-09-25T04:10:49.309Z,1010.94
2018-09-25T04:11:49.531Z,1010.90
2018-09-25T04:12:49.760Z,1010.90
2018-09-25T04:13:49.981Z,1010.94
2018-09-25T04:14:50.208Z,1010.94
2018-09-25T04:15:50.435Z,1010.96
2018-09-25T04:16:50.656Z,1010.95
2018-09-25T04:17:50.880Z,1010.99
2018-09-25T04:18:51.105Z,1010.99
2018-09-25T04:19:51.331Z,1010.98
2018-09-25T04:20:51.557Z,1010.99
2018-09-25T04:21:51.789Z,1011.02
2018-09-25T04:22:52.009Z,1011.03
2018-09-25T04:23:52.236Z,1011.03
2018-09-25T04:24:52.462Z,1011.05
2018-09-25T04:25:52.683Z,1011.07
2018-09-25T04:26:52.910Z,1011.07
2018-09-25T04:27:53.134Z,1011.08
2018-09-25T04:28:53.363Z,1011.10
2018-09-25T04:29:53.584Z,1011.11
2018-09-25T04:30:53.808Z,1011.06
2018-09-25T04:31:54.033Z,1011.06
2018-09-25T04:32:54.260Z,1011.03
2018-09-25T04:33:54.484Z,1011.12
2018-09-25T04:34:54.711Z,1011.10
2018-09-25T04:35:54.951Z,1011.13
2018-09-25T04:36:55.153Z,1011.15
2018-09-25T04:37:55.384Z,1011.15
2018-09-25T04:38:55.607Z,1011.17
2018-09-25T04:39:55.831Z,1011.15
2018-09-25T04:40:56.057Z,1011.16
2018-09-25T04:41:56.283Z,1011.17
2018-09-25T04:42:56.508Z,1011.16
2018-09-25T04:43:56.755Z,1011.14
2018-09-25T04:44:56.959Z,1011.16
2018-09-25T04:45:57.183Z,1011.19
2018-09-25T04:46:57.412Z,1011.17
2018-09-25T04:47:57.662Z,1011.24
2018-09-25T04:48:57.862Z,1011.24
2018-09-25T04:49:58.087Z,1011.26
2018-09-25T04:50:58.309Z,1011.25
2018-09-25T04:51:58.536Z,1011.27
2018-09-25T04:52:58.758Z,1011.30
2018-09-25T04:53:58.985Z,1011.25
2018-09-25T04:54:59.210Z,1011.25
2018-09-25T04:55:59.433Z,1011.25
2018-09-25T04:56:59.679Z,1011.24
2018-09-25T04:57:59.892Z,1011.23
2018-09-25T04:59:00.131Z,1011.26
2018-09-25T05:00:00.458Z,1011.29
2018-09-25T05:01:00.547Z,1011.28
2018-09-25T05:02:00.776Z,1011.26
2018-09-25T05:03:00.993Z,1011.28
2018-09-25T05:04:01.221Z,1011.30
2018-09-25T05:05:01.445Z,1011.31
2018-09-25T05:06:01.671Z,1011.33
2018-09-25T05:07:01.891Z,1011.33
2018-09-25T05:08:02.118Z,1011.34
2018-09-25T05:09:02.343Z,1011.36
2018-09-25T05:10:02.568Z,1011.39
2018-09-25T05:11:02.795Z,1011.37
2018-09-25T05:12:03.025Z,1011.38
2018-09-25T05:13:03.247Z,1011.39
2018-09-25T05:14:03.474Z,1011.42
2018-09-25T05:15:03.696Z,1011.46
2018-09-25T05:16:03.918Z,1011.49
2018-09-25T05:17:04.143Z,1011.49
2018-09-25T05:18:04.372Z,1011.49
2018-09-25T05:19:04.590Z,1011.53
2018-09-25T05:20:04.817Z,1011.53
2018-09-25T05:21:05.042Z,1011.57
2018-09-25T05:22:05.271Z,1011.58
2018-09-25T05:23:05.493Z,1011.63
2018-09-25T05:24:05.722Z,1011.61
2018-09-25T05:25:05.945Z,1011.64
2018-09-25T05:26:06.338Z,1011.62
2018-09-25T05:27:06.395Z,1011.61
2018-09-25T05:28:06.621Z,1011.64
2018-09-25T05:29:06.846Z,1011.58
2018-09-25T05:30:07.072Z,1011.59
2018-09-25T05:31:07.297Z,1011.59
2018-09-25T05:32:07.524Z,1011.58
2018-09-25T05:33:07.748Z,1011.61
2018-09-25T05:34:07.976Z,1011.66
2018-09-25T05:35:08.199Z,1011.67
2018-09-25T05:36:08.432Z,1011.66
2018-09-25T05:37:08.649Z,1011.66
2018-09-25T05:38:08.878Z,1011.68
2018-09-25T05:39:09.101Z,1011.71
2018-09-25T05:40:09.337Z,1011.69
2018-09-25T05:41:09.549Z,1011.69
2018-09-25T05:42:09.774Z,1011.70
2018-09-25T05:43:10.000Z,1011.68
2018-09-25T05:44:10.223Z,1011.69
2018-09-25T05:45:10.453Z,1011.74
2018-09-25T05:46:10.672Z,1011.72
2018-09-25T05:47:10.896Z,1011.72
2018-09-25T05:48:11.149Z,1011.76
2018-09-25T05:49:11.344Z,1011.73
2018-09-25T05:50:11.571Z,1011.72
2018-09-25T05:51:11.794Z,1011.73
2018-09-25T05:52:12.022Z,1011.76
2018-09-25T05:53:12.243Z,1011.81
2018-09-25T05:54:12.505Z,1011.85
2018-09-25T05:55:12.732Z,1011.88
2018-09-25T05:56:12.956Z,1011.90
2018-09-25T05:57:13.182Z,1011.93
2018-09-25T05:58:13.404Z,1011.89
2018-09-25T05:59:13.631Z,1011.94
2018-09-25T06:00:13.855Z,1011.93
2018-09-25T06:01:14.081Z,1011.90
2018-09-25T06:02:14.308Z,1011.89
2018-09-25T06:03:14.531Z,1011.83
2018-09-25T06:04:14.755Z,1011.85
2018-09-25T06:05:14.983Z,1011.88
2018-09-25T06:06:15.209Z,1011.93
2018-09-25T06:07:15.436Z,1011.93
2018-09-25T06:08:15.663Z,1011.91
2018-09-25T06:09:15.939Z,1011.98
2018-09-25T06:10:16.110Z,1011.98
2018-09-25T06:11:16.335Z,1011.97
2018-09-25T06:12:16.566Z,1011.99
2018-09-25T06:13:16.791Z,1012.02
2018-09-25T06:14:17.017Z,1012.01
2018-09-25T06:15:17.251Z,1012.00
2018-09-25T06:16:17.468Z,1012.01
2018-09-25T06:17:17.692Z,1012.00
2018-09-25T06:18:17.919Z,1011.96
2018-09-25T06:19:18.146Z,1011.92
2018-09-25T06:20:18.368Z,1011.97
2018-09-25T06:21:18.594Z,1011.94
2018-09-25T06:22:18.824Z,1011.93
2018-09-25T06:23:19.044Z,1011.91
2018-09-25T06:24:19.270Z,1011.89
2018-09-25T06:25:19.495Z,1011.91
2018-09-25T06:26:19.719Z,1011.89
2018-09-25T06:27:19.946Z,1011.90
2018-09-25T06:28:20.169Z,1011.91
2018-09-25T06:29:20.394Z,1011.90
2018-09-25T06:30:20.620Z,1011.93
2018-09-25T06:31:20.835Z,1011.91
2018-09-25T06:32:21.064Z,1011.94
2018-09-25T06:33:21.291Z,1011.96
2018-09-25T06:34:21.566Z,1011.92
2018-09-25T06:35:21.741Z,1011.95
2018-09-25T06:36:21.966Z,1011.91
2018-09-25T06:37:22.205Z,1011.91
2018-09-25T06:38:22.416Z,1011.93
2018-09-25T06:39:22.644Z,1011.98
2018-09-25T06:40:22.867Z,1011.96
2018-09-25T06:41:23.104Z,1011.99
2018-09-25T06:42:23.318Z,1011.97
2018-09-25T06:43:23.541Z,1011.99
2018-09-25T06:44:23.767Z,1011.99
2018-09-25T06:45:23.993Z,1012.00
2018-09-25T06:46:24.228Z,1012.04
2018-09-25T06:47:24.503Z,1012.02
2018-09-25T06:48:24.669Z,1012.07
2018-09-25T06:49:24.896Z,1012.05
2018-09-25T06:50:25.121Z,1012.04
2018-09-25T06:51:25.343Z,1012.08
2018-09-25T06:52:25.570Z,1012.13
2018-09-25T06:53:25.797Z,1012.13
2018-09-25T06:54:26.019Z,1012.17
2018-09-25T06:55:26.246Z,1012.14
2018-09-25T06:56:26.469Z,1012.19
2018-09-25T06:57:26.696Z,1012.20
2018-09-25T07:00:00.107Z,1012.22
2018-09-25T07:01:00.429Z,1012.24
2018-09-25T07:02:00.558Z,1012.30
2018-09-25T07:03:00.781Z,1012.29
2018-09-25T07:04:01.007Z,1012.28
2018-09-25T07:05:01.231Z,1012.34
2018-09-25T07:06:01.455Z,1012.31
2018-09-25T07:07:01.685Z,1012.31
2018-09-25T07:08:01.909Z,1012.30
2018-09-25T07:09:02.131Z,1012.27
2018-09-25T07:10:02.519Z,1012.27
2018-09-25T07:11:02.579Z,1012.27
2018-09-25T07:12:02.807Z,1012.34
2018-09-25T07:13:03.033Z,1012.38
2018-09-25T07:14:03.259Z,1012.41
2018-09-25T07:15:03.511Z,1012.42
2018-09-25T07:16:03.737Z,1012.43
2018-09-25T07:17:03.963Z,1012.46
2018-09-25T07:18:04.218Z,1012.46
2018-09-25T07:19:04.410Z,1012.50
2018-09-25T07:20:04.640Z,1012.51
2018-09-25T07:21:04.862Z,1012.54
2018-09-25T07:22:05.089Z,1012.55
2018-09-25T07:23:05.313Z,1012.55
2018-09-25T07:24:05.539Z,1012.60
2018-09-25T07:25:05.832Z,1012.63
2018-09-25T07:26:05.992Z,1012.63
2018-09-25T07:27:06.214Z,1012.72
2018-09-25T07:28:06.441Z,1012.73
2018-09-25T07:29:06.663Z,1012.79
2018-09-25T07:30:06.893Z,1012.71
2018-09-25T07:31:07.179Z,1012.76
2018-09-25T07:32:07.344Z,1012.75
2018-09-25T07:33:07.571Z,1012.76
2018-09-25T07:34:07.783Z,1012.73
2018-09-25T07:35:08.027Z,1012.76
2018-09-25T07:36:08.260Z,1012.81
2018-09-25T07:37:08.480Z,1012.83
2018-09-25T07:38:08.709Z,1012.83
2018-09-25T07:39:08.932Z,1012.90
2018-09-25T07:40:09.157Z,1012.87
2018-09-25T07:41:09.388Z,1012.90
2018-09-25T07:42:09.611Z,1012.90
2018-09-25T07:43:09.846Z,1012.94
2018-09-25T07:44:10.064Z,1012.97
2018-09-25T07:45:10.288Z,1012.96
2018-09-25T07:46:10.518Z,1012.92
2018-09-25T07:47:10.742Z,1012.93
2018-09-25T07:48:10.994Z,1012.91
2018-09-25T07:49:11.199Z,1012.96
2018-09-25T07:50:11.421Z,1013.00
2018-09-25T07:51:11.647Z,1012.99
2018-09-25T07:52:11.872Z,1012.98
2018-09-25T07:53:12.107Z,1013.01
2018-09-25T07:54:12.327Z,1013.04
2018-09-25T07:55:12.559Z,1012.98
2018-09-25T07:56:12.786Z,1012.99
2018-09-25T07:57:13.019Z,1012.99
2018-09-25T07:58:13.259Z,1013.03
2018-09-25T07:59:13.471Z,1013.07
2018-09-25T08:00:13.695Z,1013.11
2018-09-25T08:01:13.923Z,1013.10
2018-09-25T08:02:14.150Z,1013.12
2018-09-25T08:03:14.417Z,1013.12
2018-09-25T08:04:14.600Z,1013.13
2018-09-25T08:05:14.825Z,1013.13
2018-09-25T08:06:15.060Z,1013.08
2018-09-25T08:07:15.280Z,1013.12
2018-09-25T08:08:15.509Z,1013.12
2018-09-25T08:09:15.736Z,1013.14
2018-09-25T08:10:15.963Z,1013.13
2018-09-25T08:11:16.188Z,1013.10
2018-09-25T08:12:16.416Z,1013.08
2018-09-25T08:13:16.643Z,1013.06
2018-09-25T08:14:16.872Z,1013.12
2018-09-25T08:15:17.140Z,1013.07
2018-09-25T08:16:17.329Z,1013.12
2018-09-25T08:17:17.553Z,1013.09
2018-09-25T08:18:17.780Z,1013.07
2018-09-25T08:19:18.010Z,1013.05
2018-09-25T08:20:18.238Z,1013.08
2018-09-25T08:21:18.467Z,1013.05
2018-09-25T08:22:18.710Z,1013.04
2018-09-25T08:23:18.917Z,1013.03
2018-09-25T08:24:19.146Z,1013.01
2018-09-25T08:25:19.369Z,1013.05
2018-09-25T08:26:19.596Z,1013.06
2018-09-25T08:27:19.822Z,1013.05
2018-09-25T08:28:20.051Z,1013.05
2018-09-25T08:29:20.279Z,1013.04
2018-09-25T08:30:20.509Z,1013.05
2018-09-25T08:31:20.733Z,1013.05
2018-09-25T08:32:20.958Z,1013.06
2018-09-25T08:33:21.182Z,1013.06
2018-09-25T08:34:21.409Z,1013.07
2018-09-25T08:35:21.636Z,1013.08
2018-09-25T08:36:21.863Z,1013.06
2018-09-25T08:37:22.091Z,1013.03
2018-09-25T08:38:22.331Z,1013.05
2018-09-25T08:39:22.662Z,1013.05
2018-09-25T08:40:22.772Z,1013.05
2018-09-25T08:41:22.997Z,1013.06
2018-09-25T08:42:23.224Z,1013.06
2018-09-25T08:43:23.449Z,1013.02
2018-09-25T08:44:23.674Z,1013.02
2018-09-25T08:45:23.902Z,1013.02
2018-09-25T08:46:24.126Z,1013.02
2018-09-25T08:47:24.353Z,1013.04
2018-09-25T08:48:24.585Z,1013.05
2018-09-25T08:49:24.814Z,1013.03
2018-09-25T08:50:25.040Z,1013.01
2018-09-25T08:51:25.265Z,1012.99
2018-09-25T08:52:25.494Z,1013.03
2018-09-25T08:53:25.771Z,1013.03
2018-09-25T08:54:25.950Z,1013.03
2018-09-25T08:55:26.179Z,1013.04
2018-09-25T08:56:26.405Z,1013.02
2018-09-25T08:57:26.632Z,1013.03
2018-09-25T08:58:26.861Z,1013.09
2018-09-25T08:59:27.094Z,1013.06
2018-09-25T09:00:27.321Z,1013.11
2018-09-25T09:01:27.543Z,1013.04
2018-09-25T09:02:27.768Z,1013.05
2018-09-25T09:03:27.995Z,1013.06
2018-09-25T09:04:28.225Z,1013.06
2018-09-25T09:05:28.449Z,1013.03
2018-09-25T09:06:28.682Z,1013.01
2018-09-25T09:07:28.905Z,1013.06
2018-09-25T09:08:29.169Z,1013.07
2018-09-25T09:09:29.359Z,1013.08
2018-09-25T09:10:30.139Z,1013.13
2018-09-25T09:11:29.865Z,1013.11
2018-09-25T09:12:30.094Z,1013.11
2018-09-25T09:13:30.318Z,1013.13
2018-09-25T09:14:30.547Z,1013.12
2018-09-25T09:15:30.775Z,1013.14
2018-09-25T09:16:31.003Z,1013.14
2018-09-25T09:17:31.230Z,1013.14
2018-09-25T09:18:31.459Z,1013.11
2018-09-25T09:19:31.699Z,1013.16
2018-09-25T09:20:31.913Z,1013.16
2018-09-25T09:21:32.141Z,1013.18
2018-09-25T09:22:32.365Z,1013.16
2018-09-25T09:23:32.590Z,1013.17
2018-09-25T09:24:32.818Z,1013.19
2018-09-25T09:25:33.044Z,1013.14
2018-09-25T09:26:33.273Z,1013.16
2018-09-25T09:27:33.504Z,1013.16
2018-09-25T09:28:33.722Z,1013.21
2018-09-25T09:29:33.948Z,1013.19
2018-09-25T09:30:34.175Z,1013.17
2018-09-25T09:31:34.399Z,1013.18
2018-09-25T09:32:34.696Z,1013.18
2018-09-25T09:33:34.856Z,1013.13
2018-09-25T09:34:35.086Z,1013.20
2018-09-25T09:35:35.313Z,1013.16
2018-09-25T09:36:35.541Z,1013.19
2018-09-25T09:37:35.769Z,1013.17
2018-09-25T09:38:35.998Z,1013.16
2018-09-25T09:39:36.226Z,1013.14
2018-09-25T09:40:36.454Z,1013.12
2018-09-25T09:41:36.929Z,1013.12
2018-09-25T09:42:36.911Z,1013.17
2018-09-25T09:43:37.140Z,1013.15
2018-09-25T09:44:37.367Z,1013.15
2018-09-25T09:45:37.600Z,1013.14
2018-09-25T09:46:37.825Z,1013.15
2018-09-25T09:47:38.053Z,1013.17
2018-09-25T09:48:38.280Z,1013.16
2018-09-25T09:49:38.508Z,1013.17
2018-09-25T09:50:38.741Z,1013.15
2018-09-25T09:51:38.970Z,1013.12
2018-09-25T09:52:39.200Z,1013.14
2018-09-25T09:53:39.426Z,1013.16
2018-09-25T09:54:39.656Z,1013.12
2018-09-25T09:55:39.887Z,1013.12
2018-09-25T09:56:40.112Z,1013.13
2018-09-25T09:57:40.341Z,1013.13
2018-09-25T09:58:40.568Z,1013.12
2018-09-25T09:59:40.796Z,1013.11
2018-09-25T10:00:41.026Z,1013.13
2018-09-25T10:01:41.250Z,1013.12
2018-09-25T10:02:41.479Z,1013.13
2018-09-25T10:03:41.707Z,1013.16
2018-09-25T10:04:41.933Z,1013.12
2018-09-25T10:05:42.164Z,1013.19
2018-09-25T10:06:42.439Z,1013.17
2018-09-25T10:07:42.618Z,1013.16
2018-09-25T10:08:42.845Z,1013.19
2018-09-25T10:09:43.074Z,1013.15
2018-09-25T10:10:43.308Z,1013.10
2018-09-25T10:11:43.533Z,1013.11
2018-09-25T10:12:43.758Z,1013.12
2018-09-25T10:13:43.986Z,1013.13
2018-09-25T10:14:44.214Z,1013.11
2018-09-25T10:15:44.442Z,1013.07
2018-09-25T10:16:44.671Z,1013.11
2018-09-25T10:17:44.901Z,1013.09
2018-09-25T10:18:45.171Z,1013.01
2018-09-25T10:19:45.372Z,1013.00
2018-09-25T10:20:45.608Z,1013.00
2018-09-25T10:21:45.834Z,1012.99
2018-09-25T10:22:46.061Z,1012.97
2018-09-25T10:23:46.292Z,1013.00
2018-09-25T10:24:46.521Z,1013.04
2018-09-25T10:25:46.750Z,1013.05
2018-09-25T10:26:46.980Z,1013.03
2018-09-25T10:27:47.208Z,1013.03
2018-09-25T10:28:47.440Z,1013.00
2018-09-25T10:29:47.667Z,1013.01
2018-09-25T10:30:47.896Z,1012.99
2018-09-25T10:31:48.126Z,1013.01
2018-09-25T10:32:48.356Z,1012.98
2018-09-25T10:33:48.604Z,1012.99
2018-09-25T10:34:48.815Z,1013.02
2018-09-25T10:35:49.043Z,1012.97
2018-09-25T10:36:49.275Z,1013.03
2018-09-25T10:37:49.510Z,1013.04
2018-09-25T10:38:49.733Z,1013.04
2018-09-25T10:39:49.960Z,1013.05
2018-09-25T10:40:50.201Z,1013.03
2018-09-25T10:41:50.420Z,1013.03
2018-09-25T10:42:50.648Z,1013.02
2018-09-25T10:43:50.877Z,1013.03
2018-09-25T10:44:51.105Z,1013.02
2018-09-25T10:45:51.333Z,1013.04
2018-09-25T10:46:51.564Z,1013.02
2018-09-25T10:47:51.793Z,1013.07
2018-09-25T10:48:52.022Z,1013.09
2018-09-25T10:49:52.313Z,1013.08
2018-09-25T10:50:52.479Z,1013.11
2018-09-25T10:51:52.721Z,1013.10
2018-09-25T10:52:52.947Z,1013.12
2018-09-25T10:53:53.179Z,1013.06
2018-09-25T10:54:53.405Z,1013.08
2018-09-25T10:55:53.686Z,1013.03
2018-09-25T10:56:53.866Z,1013.05
2018-09-25T10:57:54.091Z,1013.08
2018-09-25T10:58:54.323Z,1013.10
2018-09-25T10:59:54.551Z,1013.09
2018-09-25T11:00:54.782Z,1013.10
2018-09-25T11:01:55.009Z,1013.06
2018-09-25T11:02:55.309Z,1013.09
2018-09-25T11:03:55.466Z,1013.10
2018-09-25T11:04:55.699Z,1013.07
2018-09-25T11:05:55.929Z,1013.06
2018-09-25T11:06:56.165Z,1013.10
2018-09-25T11:07:56.389Z,1013.07
2018-09-25T11:08:56.623Z,1013.12
2018-09-25T11:09:56.901Z,1013.15
2018-09-25T11:10:57.080Z,1013.16
2018-09-25T11:11:57.314Z,1013.14
2018-09-25T11:12:57.543Z,1013.15
2018-09-25T11:13:57.772Z,1013.12
2018-09-25T11:14:58.000Z,1013.11
2018-09-25T11:15:58.231Z,1013.09
2018-09-25T11:16:58.460Z,1013.08
2018-09-25T11:17:58.689Z,1013.11
2018-09-25T11:18:58.919Z,1013.13
2018-09-25T11:19:59.147Z,1013.16
2018-09-25T11:20:59.377Z,1013.11
2018-09-25T11:21:59.606Z,1013.11
2018-09-25T11:22:59.833Z,1013.11
2018-09-25T11:24:00.068Z,1013.12
2018-09-25T11:25:00.292Z,1013.10
2018-09-25T11:26:00.520Z,1013.12
2018-09-25T11:27:00.748Z,1013.14
2018-09-25T11:28:00.977Z,1013.14
2018-09-25T11:29:01.207Z,1013.10
2018-09-25T11:30:01.437Z,1013.08
2018-09-25T11:31:01.669Z,1013.06
2018-09-25T11:32:01.894Z,1012.99
2018-09-25T11:33:02.124Z,1013.02
2018-09-25T11:34:02.356Z,1013.03
2018-09-25T11:35:02.590Z,1012.98
2018-09-25T11:36:02.829Z,1012.94
2018-09-25T11:37:03.054Z,1012.96
2018-09-25T11:38:03.287Z,1012.94
2018-09-25T11:39:03.520Z,1012.98
2018-09-25T11:40:03.752Z,1012.95
2018-09-25T11:41:04.082Z,1012.97
2018-09-25T11:42:04.209Z,1012.96
2018-09-25T11:43:04.438Z,1012.98
2018-09-25T11:44:04.667Z,1013.01
2018-09-25T11:45:04.894Z,1013.03
2018-09-25T11:46:05.195Z,1012.99
2018-09-25T11:47:05.362Z,1013.02
2018-09-25T11:48:05.583Z,1013.00
2018-09-25T11:49:05.817Z,1013.03
2018-09-25T11:50:06.044Z,1012.99
2018-09-25T11:51:06.276Z,1013.02
2018-09-25T11:52:06.507Z,1013.02
2018-09-25T11:53:06.738Z,1013.06
2018-09-25T11:54:06.968Z,1012.98
2018-09-25T11:55:07.196Z,1013.07
2018-09-25T11:56:07.433Z,1013.05
2018-09-25T11:57:07.655Z,1013.05
2018-09-25T11:58:07.891Z,1013.05
2018-09-25T11:59:08.115Z,1013.03
2018-09-25T12:00:08.389Z,1013.01
2018-09-25T12:01:08.621Z,1013.00
2018-09-25T12:02:08.888Z,1012.98
2018-09-25T12:03:09.079Z,1012.97
2018-09-25T12:04:09.308Z,1012.93
2018-09-25T12:05:09.540Z,1012.95
2018-09-25T12:06:09.771Z,1012.93
2018-09-25T12:07:10.000Z,1012.99
2018-09-25T12:08:10.232Z,1012.99
2018-09-25T12:09:10.463Z,1012.98
2018-09-25T12:10:10.693Z,1013.03